Time;durP1;ratioP1;P1;durP2;ratioP2;P2;SDS_P1;SDS_P2;PMS_P1;PMS_P2;Temp;Humidity;BMP_temperature;BMP_pressure;BME280_temperature;BME280_humidity;BME280_pressure;Samples;Min_cycle;Max_cycle;Signal;HPM_P1;HPM_P2
2022/11/28 00:01:32;;;;;;;9.23;7.70;;;;;;;0.74;100.00;96455.47;5054043;28;20951;-68
2022/11/28 00:04:00;;;;;;;11.27;9.07;;;;;;;0.63;100.00;96456.50;5043956;28;20430;-69
2022/11/28 00:06:27;;;;;;;8.50;7.23;;;;;;;0.59;100.00;96454.44;5019691;28;20524;-69
2022/11/28 00:08:54;;;;;;;11.30;8.97;;;;;;;0.47;100.00;96435.69;5036422;28;20584;-69
2022/11/28 00:11:21;;;;;;;9.60;7.83;;;;;;;0.44;100.00;96414.63;5036369;28;20430;-69
2022/11/28 00:13:47;;;;;;;8.90;7.30;;;;;;;0.67;100.00;96436.72;5036255;28;20448;-70
2022/11/28 00:16:17;;;;;;;9.63;7.93;;;;;;;0.49;100.00;96431.00;5036198;28;20435;-69
2022/11/28 00:18:43;;;;;;;10.37;8.80;;;;;;;0.40;100.00;96411.78;5019688;28;20462;-69
2022/11/28 00:21:13;;;;;;;16.33;9.17;;;;;;;0.48;100.00;96431.25;5036198;28;21044;-68
2022/11/28 00:23:41;;;;;;;12.40;8.57;;;;;;;0.62;100.00;96434.91;5051824;28;20430;-69
2022/11/28 00:26:15;;;;;;;9.60;7.70;;;;;;;0.54;100.00;96425.81;5048340;28;20438;-69
2022/11/28 00:28:42;;;;;;;11.43;8.20;;;;;;;0.28;100.00;96406.81;5035719;28;20458;-68
2022/11/28 00:31:26;;;;;;;8.47;6.80;;;;;;;0.40;100.00;96416.97;5036211;28;20426;-69
2022/11/28 00:33:54;;;;;;;11.00;7.37;;;;;;;0.44;100.00;96423.22;5042113;28;20417;-69
2022/11/28 00:36:21;;;;;;;11.57;7.30;;;;;;;0.42;100.00;96429.72;5057224;28;20421;-69
2022/11/28 00:38:48;;;;;;;12.63;7.93;;;;;;;0.38;100.00;96419.03;5016274;28;20490;-68
2022/11/28 00:41:18;;;;;;;13.20;9.13;;;;;;;0.51;100.00;96422.94;5025455;28;20461;-68
2022/11/28 00:43:46;;;;;;;9.43;7.20;;;;;;;0.43;100.00;96415.66;5032783;28;20961;-68
2022/11/28 00:46:14;;;;;;;9.70;7.97;;;;;;;0.45;100.00;96422.16;5032883;28;20823;-69
2022/11/28 00:48:40;;;;;;;9.23;6.73;;;;;;;0.38;100.00;96407.84;5032726;28;21020;-68
2022/11/28 00:51:10;;;;;;;6.80;6.10;;;;;;;0.43;100.00;96423.47;5033615;28;20847;-68
2022/11/28 00:53:39;;;;;;;9.93;8.20;;;;;;;0.48;100.00;96426.84;5036076;28;20440;-68
2022/11/28 00:56:07;;;;;;;11.63;7.33;;;;;;;0.44;100.00;96419.81;5019062;28;20445;-69
2022/11/28 00:58:34;;;;;;;7.77;5.97;;;;;;;0.41;100.00;96428.94;5032726;28;20781;-68
2022/11/28 01:01:14;;;;;;;7.70;6.63;;;;;;;0.39;100.00;96417.97;5032659;28;20517;-68
2022/11/28 01:03:42;;;;;;;11.17;6.40;;;;;;;0.32;100.00;96403.69;5033987;28;20421;-69
2022/11/28 01:06:09;;;;;;;6.73;5.43;;;;;;;0.39;100.00;96404.19;5036592;28;20528;-68
2022/11/28 01:08:37;;;;;;;7.70;6.03;;;;;;;0.30;100.00;96411.75;5052281;28;21012;-69
2022/11/28 01:11:10;;;;;;;6.60;5.10;;;;;;;0.14;100.00;96377.16;5049014;28;20466;-69
2022/11/28 01:13:38;;;;;;;7.13;6.30;;;;;;;0.32;100.00;96403.69;5018803;28;20434;-68
2022/11/28 01:16:06;;;;;;;7.20;6.17;;;;;;;0.32;100.00;96398.50;5034974;28;20937;-68
2022/11/28 01:18:32;;;;;;;7.00;6.30;;;;;;;0.22;100.00;96386.25;5035507;28;20446;-69
2022/11/28 01:20:59;;;;;;;7.37;6.30;;;;;;;0.03;100.00;96365.19;5045291;28;20446;-68
2022/11/28 01:23:26;;;;;;;8.10;6.77;;;;;;;0.09;100.00;96369.34;5032256;28;20528;-69
2022/11/28 01:25:53;;;;;;;7.03;6.33;;;;;;;0.25;100.00;96393.53;5035615;28;20517;-69
2022/11/28 01:28:20;;;;;;;8.10;6.43;;;;;;;0.11;100.00;96382.84;5028381;28;20538;-68
2022/11/28 01:30:46;;;;;;;7.17;5.90;;;;;;;0.15;100.00;96388.34;5032096;28;21028;-68
2022/11/28 01:33:13;;;;;;;6.70;6.10;;;;;;;0.06;100.00;96366.47;5031986;28;20976;-69
2022/11/28 01:35:40;;;;;;;6.30;5.40;;;;;;;0.16;100.00;96367.28;5035699;28;20520;-68
2022/11/28 01:38:06;;;;;;;5.77;5.13;;;;;;;0.12;100.00;96362.84;5037713;28;20438;-68
2022/11/28 01:40:33;;;;;;;7.10;6.40;;;;;;;0.04;100.00;96352.97;5031694;28;20454;-68
2022/11/28 01:42:59;;;;;;;13.00;6.57;;;;;;;0.20;100.00;96364.94;5031714;28;20436;-68
2022/11/28 01:45:31;;;;;;;6.43;5.80;;;;;;;0.25;100.00;96378.72;5032003;28;20449;-69
2022/11/28 01:48:02;;;;;;;8.70;5.53;;;;;;;0.20;100.00;96367.53;5015813;28;20534;-68
2022/11/28 01:50:30;;;;;;;8.80;6.63;;;;;;;0.09;100.00;96363.34;5031313;28;20502;-68
2022/11/28 01:53:03;;;;;;;7.60;6.20;;;;;;;0.15;100.00;96359.75;5045870;28;20441;-68
2022/11/28 01:55:34;;;;;;;7.57;6.70;;;;;;;0.11;100.00;96356.09;5025736;28;20431;-68
2022/11/28 01:58:01;;;;;;;8.30;6.10;;;;;;;0.14;100.00;96355.59;5036546;28;20442;-68
2022/11/28 02:00:27;;;;;;;7.07;5.53;;;;;;;0.18;100.00;96365.19;5046612;28;21162;-68
2022/11/28 02:03:14;;;;;;;8.73;6.57;;;;;;;0.15;100.00;96365.72;5051253;28;20429;-68
2022/11/28 02:05:41;;;;;;;6.10;5.50;;;;;;;0.17;100.00;96366.25;5051308;28;20436;-68
2022/11/28 02:08:08;;;;;;;6.00;5.40;;;;;;;0.00;100.00;96355.31;5051173;28;20602;-68
2022/11/28 02:11:13;;;;;;;8.83;5.70;;;;;;;0.05;100.00;96350.09;5051127;28;20464;-68
2022/11/28 02:14:01;;;;;;;7.80;6.50;;;;;;;-0.05;100.00;96350.88;5034771;28;20452;-68
2022/11/28 02:16:47;;;;;;;6.90;6.20;;;;;;;0.00;100.00;96360.50;5051363;28;20803;-67
2022/11/28 02:19:19;;;;;;;6.60;5.73;;;;;;;0.00;100.00;96350.13;5052530;28;20500;-68
2022/11/28 02:21:49;;;;;;;7.03;6.27;;;;;;;-0.07;100.00;96344.38;5053341;28;20823;-68
2022/11/28 02:25:07;;;;;;;7.53;5.53;;;;;;;-0.12;100.00;96345.16;5034719;28;20455;-68
2022/11/28 02:28:00;;;;;;;6.87;5.77;;;;;;;-0.11;100.00;96344.13;5017677;28;20441;-68
2022/11/28 02:30:50;;;;;;;5.77;5.27;;;;;;;-0.25;100.00;96324.88;5029685;28;20484;-68
2022/11/28 02:33:19;;;;;;;11.63;6.00;;;;;;;-0.24;100.00;96339.41;5032283;28;20521;-68
2022/11/28 02:35:53;;;;;;;6.50;5.90;;;;;;;-0.08;100.00;96350.59;5035691;28;20442;-68
2022/11/28 02:38:26;;;;;;;9.50;6.10;;;;;;;0.02;100.00;96353.22;5034269;28;20441;-69
2022/11/28 02:41:10;;;;;;;7.33;6.10;;;;;;;-0.04;100.00;96351.66;5032195;28;20465;-68
2022/11/28 02:43:51;;;;;;;7.60;6.07;;;;;;;-0.01;100.00;96344.09;5030600;28;20445;-68
2022/11/28 02:46:47;;;;;;;7.80;6.00;;;;;;;-0.17;100.00;96326.94;5030695;28;20837;-68
2022/11/28 02:49:35;;;;;;;6.50;5.57;;;;;;;-0.12;100.00;96324.38;5044290;28;20468;-68
2022/11/28 02:52:44;;;;;;;6.90;5.80;;;;;;;-0.12;100.00;96333.97;5050643;28;20435;-68
2022/11/28 02:55:12;;;;;;;7.07;6.37;;;;;;;-0.04;100.00;96336.06;5047786;28;20488;-68
2022/11/28 02:57:45;;;;;;;7.90;7.13;;;;;;;-0.20;100.00;96314.47;5050377;28;20437;-69
2022/11/28 03:00:33;;;;;;;7.53;6.00;;;;;;;-0.05;100.00;96305.91;5033873;28;20812;-68
2022/11/28 03:03:00;;;;;;;11.43;6.77;;;;;;;0.04;100.00;96330.38;5014181;28;20852;-68
2022/11/28 03:05:42;;;;;;;6.07;5.47;;;;;;;0.06;100.00;96320.47;5031656;28;20521;-68
2022/11/28 03:09:05;;;;;;;6.10;5.50;;;;;;;-0.02;100.00;96332.16;5031621;28;20421;-69
2022/11/28 03:12:10;;;;;;;7.73;5.33;;;;;;;-0.03;100.00;96328.00;5025830;28;20574;-68
2022/11/28 03:14:59;;;;;;;7.67;6.00;;;;;;;-0.09;100.00;96326.44;4996235;28;20480;-68
2022/11/28 03:17:35;;;;;;;8.50;5.90;;;;;;;0.03;100.00;96315.81;5012606;28;20850;-68
2022/11/28 03:20:16;;;;;;;8.70;6.23;;;;;;;0.02;100.00;96326.47;5028677;28;20469;-68
2022/11/28 03:22:48;;;;;;;9.27;6.80;;;;;;;-0.14;100.00;96297.84;5012645;28;20442;-69
2022/11/28 03:25:38;;;;;;;8.13;6.27;;;;;;;-0.10;100.00;96288.50;5012610;28;20958;-68
2022/11/28 03:28:18;;;;;;;9.67;7.47;;;;;;;-0.11;100.00;96286.19;5028835;28;20938;-68
2022/11/28 03:30:51;;;;;;;9.63;7.00;;;;;;;-0.25;100.00;96251.34;5016310;28;20462;-68
2022/11/28 03:33:21;;;;;;;7.07;5.93;;;;;;;-0.11;100.00;96271.38;5012479;28;20797;-68
2022/11/28 03:35:53;;;;;;;8.30;7.50;;;;;;;-0.13;100.00;96275.28;5017308;28;20441;-69
2022/11/28 03:38:27;;;;;;;10.70;6.50;;;;;;;-0.22;100.00;96259.41;5016431;28;20600;-68
2022/11/28 03:40:58;;;;;;;8.50;6.70;;;;;;;0.08;100.00;96276.03;5012397;28;20542;-68
2022/11/28 03:43:31;;;;;;;7.17;6.40;;;;;;;0.00;100.00;96277.34;5029978;28;20433;-68
2022/11/28 03:46:03;;;;;;;14.83;8.27;;;;;;;0.01;100.00;96273.72;5025406;28;20437;-69
2022/11/28 03:48:33;;;;;;;9.23;6.30;;;;;;;0.09;100.00;96293.19;5051238;28;20423;-69
2022/11/28 03:51:20;;;;;;;8.57;6.87;;;;;;;0.09;100.00;96291.38;5050161;28;20472;-68
2022/11/28 03:53:55;;;;;;;6.80;5.90;;;;;;;0.13;100.00;96289.03;5033302;28;20475;-68
2022/11/28 03:56:46;;;;;;;9.60;7.00;;;;;;;0.16;100.00;96291.13;5049638;28;21142;-68
2022/11/28 03:59:20;;;;;;;9.00;6.87;;;;;;;0.12;100.00;96288.25;5038790;28;20468;-69
2022/11/28 04:01:57;;;;;;;7.80;6.30;;;;;;;0.08;100.00;96282.00;5031229;28;20418;-68
2022/11/28 04:04:49;;;;;;;10.70;6.83;;;;;;;-0.02;100.00;96275.00;5030997;28;20457;-69
2022/11/28 04:07:51;;;;;;;8.30;7.13;;;;;;;0.01;100.00;96281.50;5029721;28;20864;-68
2022/11/28 04:10:33;;;;;;;8.73;6.80;;;;;;;-0.01;100.00;96273.16;5039128;28;20568;-68
2022/11/28 04:13:21;;;;;;;8.00;7.03;;;;;;;-0.04;100.00;96264.06;5049638;28;20469;-68
2022/11/28 04:16:18;;;;;;;7.63;6.83;;;;;;;0.05;100.00;96266.16;5053143;28;20436;-68
2022/11/28 04:19:09;;;;;;;8.87;6.63;;;;;;;0.05;100.00;96259.16;5044501;28;20488;-68
2022/11/28 04:22:03;;;;;;;9.83;7.50;;;;;;;0.17;100.00;96251.88;5053093;28;20433;-68
2022/11/28 04:24:36;;;;;;;7.30;6.03;;;;;;;0.07;100.00;96240.69;5036571;28;20429;-68
2022/11/28 04:27:10;;;;;;;9.67;8.70;;;;;;;0.01;100.00;96241.75;5052911;28;20445;-68
2022/11/28 04:29:43;;;;;;;7.40;6.70;;;;;;;-0.04;100.00;96232.91;5034923;28;20549;-68
2022/11/28 04:32:12;;;;;;;10.50;6.60;;;;;;;-0.25;100.00;96196.81;5032980;28;20541;-68
2022/11/28 04:34:44;;;;;;;11.30;6.53;;;;;;;-0.02;100.00;96212.63;5016871;28;20466;-67
2022/11/28 04:37:13;;;;;;;8.60;6.50;;;;;;;0.08;100.00;96211.06;5044225;28;20911;-67
2022/11/28 04:39:43;;;;;;;10.60;7.03;;;;;;;0.06;100.00;96200.16;5034011;28;21064;-68
2022/11/28 04:42:25;;;;;;;9.83;7.10;;;;;;;-0.04;100.00;96193.91;5032934;28;20798;-67
2022/11/28 04:45:01;;;;;;;10.90;7.87;;;;;;;-0.09;100.00;96196.53;5034060;28;20509;-67
2022/11/28 04:47:28;;;;;;;12.23;7.80;;;;;;;0.02;100.00;96188.75;5033064;28;20461;-68
2022/11/28 04:49:55;;;;;;;7.77;6.70;;;;;;;-0.16;100.00;96161.47;5020218;28;20903;-67
2022/11/28 04:52:37;;;;;;;9.00;6.63;;;;;;;-0.13;100.00;96187.72;5036333;28;20447;-67
2022/11/28 04:55:39;;;;;;;11.37;8.00;;;;;;;-0.10;100.00;96183.81;5052690;28;20533;-68
2022/11/28 04:58:18;;;;;;;11.73;7.67;;;;;;;-0.09;100.00;96195.75;5053737;28;20933;-68
2022/11/28 05:00:48;;;;;;;11.90;8.37;;;;;;;-0.12;100.00;96183.28;5035857;28;20445;-68
2022/11/28 05:03:16;;;;;;;10.23;7.70;;;;;;;-0.12;100.00;96183.28;5054156;28;20414;-68
2022/11/28 05:05:48;;;;;;;11.47;7.57;;;;;;;-0.08;100.00;96181.72;5035552;28;20947;-69
2022/11/28 05:08:16;;;;;;;10.77;8.17;;;;;;;-0.07;100.00;96178.88;5032253;28;20462;-68
2022/11/28 05:10:43;;;;;;;8.43;7.43;;;;;;;-0.16;100.00;96172.63;5032128;28;21010;-68
2022/11/28 05:13:10;;;;;;;11.93;8.10;;;;;;;-0.01;100.00;96196.00;5032452;28;20553;-68
2022/11/28 05:15:36;;;;;;;11.60;7.80;;;;;;;-0.04;100.00;96177.56;5033676;28;20497;-68
2022/11/28 05:18:03;;;;;;;12.77;8.03;;;;;;;0.19;100.00;96197.03;5019604;28;20507;-70
2022/11/28 05:20:31;;;;;;;10.20;7.63;;;;;;;0.19;100.00;96218.59;5046179;28;20469;-68
2022/11/28 05:22:57;;;;;;;13.27;8.97;;;;;;;0.15;100.00;96203.78;5032529;28;20429;-68
2022/11/28 05:25:24;;;;;;;16.40;11.30;;;;;;;0.06;100.00;96181.97;5021779;28;20442;-69
2022/11/28 05:27:51;;;;;;;11.10;8.43;;;;;;;0.21;100.00;96193.09;5042391;28;20438;-69
2022/11/28 05:30:17;;;;;;;12.50;8.33;;;;;;;-0.19;100.00;96129.00;5030000;28;20462;-69
2022/11/28 05:32:44;;;;;;;13.37;8.77;;;;;;;-0.09;100.00;96152.38;5015937;28;20438;-68
2022/11/28 05:35:10;;;;;;;9.33;7.47;;;;;;;0.07;100.00;96181.69;5031743;28;20462;-68
2022/11/28 05:37:37;;;;;;;12.53;8.80;;;;;;;-0.11;100.00;96144.06;5028693;28;20970;-68
2022/11/28 05:40:05;;;;;;;13.30;7.97;;;;;;;0.01;100.00;96159.38;5028942;28;20501;-68
2022/11/28 05:42:34;;;;;;;12.53;8.60;;;;;;;0.02;100.00;96145.34;5031894;28;20529;-67
2022/11/28 05:45:01;;;;;;;14.53;9.90;;;;;;;0.17;100.00;96162.72;5031842;28;20941;-68
2022/11/28 05:47:32;;;;;;;14.33;9.43;;;;;;;0.11;100.00;96142.97;5031705;28;20434;-68
2022/11/28 05:49:58;;;;;;;13.20;8.27;;;;;;;0.04;100.00;96121.69;5031557;28;20513;-68
2022/11/28 05:52:28;;;;;;;10.77;7.87;;;;;;;-0.02;100.00;96110.50;5015132;28;20891;-67
2022/11/28 05:54:55;;;;;;;12.87;9.80;;;;;;;-0.01;100.00;96115.44;5050827;28;20955;-67
2022/11/28 05:57:21;;;;;;;13.93;9.10;;;;;;;-0.08;100.00;96121.97;5052917;28;20421;-67
2022/11/28 05:59:48;;;;;;;12.23;7.80;;;;;;;-0.35;100.00;96101.50;5051443;28;20560;-68
2022/11/28 06:02:15;;;;;;;13.47;8.17;;;;;;;-0.15;100.00;96117.03;5035254;28;20929;-68
2022/11/28 06:04:41;;;;;;;13.17;7.70;;;;;;;-0.04;100.00;96134.16;5051150;28;20441;-68
2022/11/28 06:07:08;;;;;;;11.40;9.67;;;;;;;0.11;100.00;96140.38;5034758;28;20438;-69
2022/11/28 06:09:38;;;;;;;13.97;10.07;;;;;;;-0.12;100.00;96115.75;5052464;28;20458;-68
2022/11/28 06:12:05;;;;;;;14.03;9.23;;;;;;;-0.04;100.00;96131.56;5052058;28;21030;-68
2022/11/28 06:14:31;;;;;;;9.37;8.00;;;;;;;0.17;100.00;96126.34;5033907;28;20930;-68
2022/11/28 06:16:58;;;;;;;13.10;9.30;;;;;;;0.19;100.00;96108.66;5052208;28;20433;-70
2022/11/28 06:19:25;;;;;;;18.30;10.77;;;;;;;-0.02;100.00;96113.09;5050563;28;20547;-70
2022/11/28 06:21:52;;;;;;;16.57;11.40;;;;;;;0.11;100.00;96137.75;5050528;28;20444;-69
2022/11/28 06:24:19;;;;;;;16.30;10.97;;;;;;;0.08;100.00;96144.28;5034140;28;20528;-70
2022/11/28 06:26:45;;;;;;;17.10;10.40;;;;;;;0.28;100.00;96164.25;5052028;28;20429;-70
2022/11/28 06:29:12;;;;;;;14.90;10.60;;;;;;;0.28;100.00;96135.66;5035771;28;20454;-70
2022/11/28 06:31:39;;;;;;;14.57;9.93;;;;;;;0.12;100.00;96108.13;5014173;28;20534;-70
2022/11/28 06:34:05;;;;;;;17.53;10.80;;;;;;;0.03;100.00;96081.16;5032050;28;20896;-69
2022/11/28 06:36:32;;;;;;;15.93;11.23;;;;;;;0.07;100.00;96082.94;5040436;28;20430;-70
2022/11/28 06:38:59;;;;;;;14.20;10.00;;;;;;;0.23;100.00;96102.63;5031084;28;20454;-70
2022/11/28 06:41:26;;;;;;;14.13;9.50;;;;;;;0.20;100.00;96112.78;5030345;28;20426;-70
2022/11/28 06:43:52;;;;;;;14.17;10.33;;;;;;;0.43;100.00;96140.03;5014046;28;20437;-71
2022/11/28 06:46:20;;;;;;;15.80;10.17;;;;;;;0.27;100.00;96131.50;5031683;28;20432;-71
2022/11/28 06:48:50;;;;;;;15.13;11.00;;;;;;;0.29;100.00;96137.22;5030483;28;20467;-71
2022/11/28 06:51:18;;;;;;;14.17;10.87;;;;;;;0.29;100.00;96138.00;5031841;28;20508;-71
2022/11/28 06:53:44;;;;;;;14.83;9.80;;;;;;;0.33;100.00;96142.66;5030471;28;20426;-71
2022/11/28 06:56:14;;;;;;;13.73;9.43;;;;;;;0.41;100.00;96139.53;5030201;28;20484;-71
2022/11/28 06:58:42;;;;;;;17.93;9.80;;;;;;;0.19;100.00;96116.44;5031385;28;20825;-71
2022/11/28 07:01:13;;;;;;;15.50;9.47;;;;;;;0.21;100.00;96122.94;5030261;28;20447;-70
2022/11/28 07:03:40;;;;;;;15.33;9.10;;;;;;;0.45;100.00;96154.31;5031760;28;20422;-71
2022/11/28 07:06:07;;;;;;;20.43;12.07;;;;;;;0.38;100.00;96150.44;5030423;28;20517;-71
2022/11/28 07:08:34;;;;;;;17.33;12.40;;;;;;;0.27;100.00;96152.31;5042274;28;20399;-68
2022/11/28 07:11:15;;;;;;;24.77;14.00;;;;;;;0.22;100.00;96147.88;5041297;28;20470;-69
2022/11/28 07:13:44;;;;;;;17.37;13.83;;;;;;;0.23;100.00;96135.66;5031367;28;20469;-69
2022/11/28 07:16:20;;;;;;;19.30;12.03;;;;;;;0.01;100.00;96104.81;5046648;28;20533;-69
2022/11/28 07:18:47;;;;;;;15.50;12.10;;;;;;;0.24;100.00;96134.63;5030569;28;20454;-74
2022/11/28 07:21:15;;;;;;;16.23;12.10;;;;;;;-0.01;100.00;96115.44;5030100;28;20905;-74
2022/11/28 07:23:42;;;;;;;19.90;11.60;;;;;;;0.04;100.00;96125.06;5011908;28;20831;-74
2022/11/28 07:26:11;;;;;;;18.07;11.80;;;;;;;0.24;100.00;96130.19;5029811;28;20473;-74
2022/11/28 07:28:38;;;;;;;14.90;10.87;;;;;;;-0.02;100.00;96103.50;5022724;28;20449;-74
2022/11/28 07:31:11;;;;;;;13.67;9.60;;;;;;;-0.01;100.00;96115.44;5013355;28;20461;-74
2022/11/28 07:33:40;;;;;;;17.57;10.30;;;;;;;-0.05;100.00;96091.03;5043341;28;20433;-74
2022/11/28 07:36:11;;;;;;;13.50;10.03;;;;;;;0.27;100.00;96126.31;5021014;28;20437;-74
2022/11/28 07:38:37;;;;;;;15.17;11.40;;;;;;;0.14;100.00;96106.06;5011436;28;20439;-74
2022/11/28 07:41:07;;;;;;;17.40;11.90;;;;;;;0.22;100.00;96110.72;5021716;28;20948;-74
2022/11/28 07:43:33;;;;;;;17.43;11.20;;;;;;;0.10;100.00;96097.22;5035431;28;20429;-74
2022/11/28 07:46:09;;;;;;;17.53;11.13;;;;;;;0.20;100.00;96105.78;5049473;28;20437;-74
2022/11/28 07:48:36;;;;;;;16.30;11.57;;;;;;;0.20;100.00;96115.41;5017270;28;20418;-74
2022/11/28 07:51:09;;;;;;;18.57;11.20;;;;;;;0.43;100.00;96129.63;5033314;28;20556;-74
2022/11/28 07:53:36;;;;;;;14.20;11.27;;;;;;;0.55;100.00;96169.09;5033646;28;20418;-74
2022/11/28 07:56:05;;;;;;;15.43;11.17;;;;;;;0.44;100.00;96168.34;5033716;28;20441;-74
2022/11/28 07:58:33;;;;;;;14.43;10.03;;;;;;;0.23;100.00;96146.84;5042278;28;20448;-74
2022/11/28 08:01:10;;;;;;;12.17;9.60;;;;;;;0.34;100.00;96163.19;5052320;28;20529;-74
2022/11/28 08:03:36;;;;;;;15.50;11.00;;;;;;;0.28;100.00;96161.66;5033469;28;20430;-74
2022/11/28 08:06:04;;;;;;;15.67;12.03;;;;;;;0.56;100.00;96168.06;5034381;28;20445;-74
2022/11/28 08:08:31;;;;;;;15.17;10.63;;;;;;;0.38;100.00;96155.63;5053248;28;20421;-74
2022/11/28 08:11:00;;;;;;;14.60;10.63;;;;;;;0.52;100.00;96177.41;5036663;28;20826;-74
2022/11/28 08:13:27;;;;;;;17.57;12.40;;;;;;;0.74;100.00;96198.69;5053107;28;20444;-74
2022/11/28 08:15:54;;;;;;;14.20;11.50;;;;;;;0.69;100.00;96193.50;5053042;28;20524;-74
2022/11/28 08:18:21;;;;;;;13.43;10.90;;;;;;;0.70;100.00;96192.47;5036420;28;20494;-74
2022/11/28 08:20:48;;;;;;;16.50;10.43;;;;;;;0.56;100.00;96171.44;5036466;28;20452;-74
2022/11/28 08:23:14;;;;;;;12.83;10.20;;;;;;;0.71;100.00;96201.03;5041288;28;20426;-74
2022/11/28 08:25:41;;;;;;;13.57;11.30;;;;;;;0.74;100.00;96197.91;5034275;28;20926;-74
2022/11/28 08:28:08;;;;;;;17.13;12.50;;;;;;;0.43;100.00;96155.63;5033057;28;20434;-74
2022/11/28 08:30:34;;;;;;;16.33;12.30;;;;;;;0.35;100.00;96154.34;5032773;28;20458;-74
2022/11/28 08:33:01;;;;;;;14.27;11.90;;;;;;;0.52;100.00;96193.81;5032766;28;20461;-74
2022/11/28 08:35:28;;;;;;;14.03;10.50;;;;;;;0.48;100.00;96184.97;5038440;28;20433;-75
2022/11/28 08:37:54;;;;;;;13.40;11.60;;;;;;;0.45;100.00;96176.94;5020369;28;20998;-74
2022/11/28 08:40:27;;;;;;;15.10;9.70;;;;;;;0.59;100.00;96186.50;5020889;28;20444;-74
2022/11/28 08:42:54;;;;;;;15.73;10.83;;;;;;;0.76;100.00;96198.41;5032598;28;20434;-74
2022/11/28 08:45:21;;;;;;;16.30;12.97;;;;;;;0.71;100.00;96182.84;5032639;28;20478;-74
2022/11/28 08:47:47;;;;;;;13.67;10.27;;;;;;;0.83;100.00;96185.91;5016123;28;20453;-74
2022/11/28 08:50:14;;;;;;;16.20;10.67;;;;;;;0.91;100.00;96224.38;5016062;28;20512;-74
2022/11/28 08:52:41;;;;;;;15.17;10.87;;;;;;;0.73;100.00;96197.13;5033062;28;20470;-74
2022/11/28 08:55:08;;;;;;;15.57;10.60;;;;;;;0.93;100.00;96198.06;5052341;28;20503;-74
2022/11/28 08:57:34;;;;;;;15.77;12.10;;;;;;;0.89;100.00;96221.25;5052387;28;20456;-74
2022/11/28 09:00:01;;;;;;;19.20;11.90;;;;;;;0.64;100.00;96197.94;5052574;28;21095;-74
2022/11/28 09:02:28;;;;;;;17.70;12.00;;;;;;;0.50;100.00;96171.72;5052612;28;20779;-74
2022/11/28 09:04:54;;;;;;;16.53;12.30;;;;;;;0.50;100.00;96169.88;5032500;28;20438;-74
2022/11/28 09:07:21;;;;;;;14.23;10.93;;;;;;;0.36;100.00;96155.13;5033655;28;20461;-74
2022/11/28 09:09:48;;;;;;;15.33;12.27;;;;;;;0.69;100.00;96200.53;5032565;28;20832;-74
2022/11/28 09:12:15;;;;;;;19.30;11.83;;;;;;;0.49;100.00;96181.34;5015873;28;21012;-74
2022/11/28 09:14:42;;;;;;;15.70;11.57;;;;;;;0.46;100.00;96163.66;5032321;28;20957;-74
2022/11/28 09:17:08;;;;;;;19.80;13.10;;;;;;;0.53;100.00;96173.78;5047244;28;20437;-74
2022/11/28 09:19:35;;;;;;;20.10;11.43;;;;;;;0.58;100.00;96177.16;5051963;28;20992;-74
2022/11/28 09:22:02;;;;;;;22.13;11.50;;;;;;;0.77;100.00;96186.97;5018780;28;20440;-74
2022/11/28 09:24:28;;;;;;;16.20;11.80;;;;;;;0.86;100.00;96198.38;5016061;28;20449;-75
2022/11/28 09:26:55;;;;;;;17.23;12.77;;;;;;;0.64;100.00;96161.50;5034296;28;20525;-74
2022/11/28 09:29:22;;;;;;;17.33;11.60;;;;;;;0.77;100.00;96171.34;5027537;28;20447;-74
2022/11/28 09:31:48;;;;;;;17.90;12.37;;;;;;;0.87;100.00;96182.50;5044736;28;20438;-74
2022/11/28 09:34:15;;;;;;;16.90;11.97;;;;;;;0.78;100.00;96159.88;5056003;28;20430;-73
2022/11/28 09:36:42;;;;;;;17.40;13.00;;;;;;;0.84;100.00;96144.00;5048665;28;20520;-74
2022/11/28 09:39:08;;;;;;;20.60;13.87;;;;;;;0.90;100.00;96160.34;5025721;28;20989;-74
2022/11/28 09:41:57;;;;;;;18.80;12.63;;;;;;;0.97;100.00;96152.25;5050927;28;20449;-73
2022/11/28 09:44:44;;;;;;;16.90;11.97;;;;;;;1.08;100.00;96162.34;5013544;28;20456;-74
2022/11/28 09:47:24;;;;;;;21.87;14.10;;;;;;;0.94;100.00;96129.38;5027589;28;20513;-74
2022/11/28 09:49:56;;;;;;;16.83;11.00;;;;;;;0.95;100.00;96149.16;5014984;28;20945;-74
2022/11/28 09:52:41;;;;;;;18.20;14.10;;;;;;;1.16;100.00;96164.38;5044477;28;20473;-74
2022/11/28 09:55:38;;;;;;;22.07;14.50;;;;;;;1.12;100.00;96157.38;5032743;28;20916;-74
2022/11/28 09:58:18;;;;;;;21.90;14.40;;;;;;;1.30;100.00;96138.50;5023603;28;20434;-74
2022/11/28 10:00:55;;;;;;;19.10;12.57;;;;;;;1.42;100.00;96144.16;5017414;28;20830;-74
2022/11/28 10:03:42;;;;;;;19.20;13.57;;;;;;;1.26;100.00;96114.06;5032452;28;20620;-74
2022/11/28 10:06:38;;;;;;;20.60;13.50;;;;;;;1.46;100.00;96131.34;5031038;28;20437;-74
2022/11/28 10:09:21;;;;;;;18.90;12.73;;;;;;;1.42;100.00;96133.72;5024428;28;20465;-74
2022/11/28 10:12:06;;;;;;;18.53;12.90;;;;;;;1.18;100.00;96096.41;5031835;28;20485;-74
2022/11/28 10:14:45;;;;;;;21.73;12.93;;;;;;;1.62;100.00;96145.84;5030955;28;20442;-74
2022/11/28 10:17:39;;;;;;;15.10;10.77;;;;;;;1.89;100.00;96149.78;5036028;28;20520;-74
2022/11/28 10:20:12;;;;;;;15.57;12.37;;;;;;;1.52;100.00;96137.31;5032036;28;20462;-74
2022/11/28 10:22:52;;;;;;;14.87;10.73;;;;;;;1.61;100.00;96133.88;5031021;28;20423;-74
2022/11/28 10:25:43;;;;;;;15.70;11.17;;;;;;;1.46;100.00;96120.94;5052052;28;20490;-74
2022/11/28 10:28:15;;;;;;;14.93;11.80;;;;;;;1.67;100.00;96135.38;5038576;28;20438;-74
2022/11/28 10:30:47;;;;;;;15.90;11.50;;;;;;;1.57;100.00;96122.41;5031852;28;20454;-74
2022/11/28 10:33:24;;;;;;;14.60;11.63;;;;;;;1.58;100.00;96100.53;5030668;28;20903;-74
2022/11/28 10:35:54;;;;;;;20.93;13.70;;;;;;;1.65;100.00;96131.47;5031900;28;20420;-74
2022/11/28 10:38:26;;;;;;;19.17;13.63;;;;;;;1.76;100.00;96122.53;5032094;28;20926;-74
2022/11/28 10:41:03;;;;;;;15.40;13.80;;;;;;;1.96;100.00;96127.53;5033907;28;20440;-74
2022/11/28 10:43:47;;;;;;;15.63;11.50;;;;;;;1.88;100.00;96117.72;5050357;28;20436;-74
2022/11/28 10:46:38;;;;;;;18.30;12.77;;;;;;;1.90;100.00;96112.25;5031290;28;20432;-74
2022/11/28 10:49:21;;;;;;;16.20;12.03;;;;;;;1.68;100.00;96084.81;5043591;28;20457;-74
2022/11/28 10:51:48;;;;;;;16.10;13.60;;;;;;;2.06;100.00;96113.63;5037892;28;20484;-74
2022/11/28 10:54:37;;;;;;;19.53;13.97;;;;;;;2.10;100.00;96114.63;5031639;28;20988;-74
2022/11/28 10:57:26;;;;;;;16.13;11.80;;;;;;;2.22;100.00;96115.00;5032009;28;20513;-74
2022/11/28 11:00:09;;;;;;;12.87;10.93;;;;;;;2.31;100.00;96123.78;5058356;28;20819;-74
2022/11/28 11:02:44;;;;;;;15.50;12.70;;;;;;;1.76;100.00;96076.41;5034512;28;20920;-74
2022/11/28 11:05:27;;;;;;;16.20;12.37;;;;;;;2.19;100.00;96109.59;5044903;28;20437;-74
2022/11/28 11:08:11;;;;;;;16.23;12.40;;;;;;;2.16;100.00;96118.75;5030210;28;20440;-74
2022/11/28 11:11:04;;;;;;;16.33;12.40;;;;;;;2.08;100.00;96108.91;5018682;28;20543;-74
2022/11/28 11:13:34;;;;;;;19.77;12.90;;;;;;;1.90;100.00;96086.16;5029911;28;20997;-74
2022/11/28 11:16:10;;;;;;;16.23;12.07;;;;;;;2.17;100.00;96109.09;5031296;28;20797;-74
2022/11/28 11:18:52;;;;;;;17.03;12.87;;;;;;;2.38;100.00;96118.22;5032025;28;20511;-74
2022/11/28 11:21:23;;;;;;;22.13;12.77;;;;;;;2.50;100.00;96129.03;5029794;28;20481;-74
2022/11/28 11:24:11;;;;;;;15.20;11.10;;;;;;;2.45;100.00;96104.84;5029621;28;20410;-74
2022/11/28 11:26:42;;;;;;;18.57;12.60;;;;;;;2.51;100.00;96119.38;5031515;28;20498;-74
2022/11/28 11:29:36;;;;;;;13.50;11.70;;;;;;;1.97;100.00;96050.09;5031168;28;20474;-74
2022/11/28 11:32:05;;;;;;;13.70;11.50;;;;;;;2.23;100.00;96089.72;5019800;28;20569;-74
2022/11/28 11:34:52;;;;;;;18.27;12.90;;;;;;;2.48;100.00;96104.28;5030990;28;20441;-74
2022/11/28 11:37:19;;;;;;;14.70;12.93;;;;;;;2.60;100.00;96099.44;5026421;28;20443;-74
2022/11/28 11:39:51;;;;;;;13.37;10.40;;;;;;;2.61;100.00;96108.84;5049404;28;20559;-75
2022/11/28 11:42:25;;;;;;;16.07;12.37;;;;;;;2.52;100.00;96106.06;5049878;28;20980;-74
2022/11/28 11:44:53;;;;;;;17.27;12.90;;;;;;;2.40;100.00;96076.22;5042053;28;20426;-74
2022/11/28 11:47:39;;;;;;;28.03;19.20;;;;;;;2.46;100.00;96077.72;5029464;28;20429;-74
2022/11/28 11:50:15;;;;;;;17.70;13.53;;;;;;;2.51;100.00;96114.94;5013185;28;20458;-73